sensor_id;sensor_type;location;lat;lon;timestamp;temperature;humidity
37528;DHT22;23372;52.050;4.810;2022-10-31T00:02:08;11.60;99.90
37528;DHT22;23372;52.050;4.810;2022-10-31T00:04:33;11.60;99.90
37528;DHT22;23372;52.050;4.810;2022-10-31T00:06:59;11.60;99.90
37528;DHT22;23372;52.050;4.810;2022-10-31T00:09:24;11.60;99.90
37528;DHT22;23372;52.050;4.810;2022-10-31T00:11:50;11.60;99.90
37528;DHT22;23372;52.050;4.810;2022-10-31T00:14:15;11.60;99.90
37528;DHT22;23372;52.050;4.810;2022-10-31T00:16:41;11.60;99.90
37528;DHT22;23372;52.050;4.810;2022-10-31T00:19:07;11.60;99.90
37528;DHT22;23372;52.050;4.810;2022-10-31T00:21:33;11.60;99.90
37528;DHT22;23372;52.050;4.810;2022-10-31T00:24:00;11.60;99.90
37528;DHT22;23372;52.050;4.810;2022-10-31T00:26:30;11.60;99.90
37528;DHT22;23372;52.050;4.810;2022-10-31T00:28:56;11.60;99.90
37528;DHT22;23372;52.050;4.810;2022-10-31T00:31:22;11.60;99.90
37528;DHT22;23372;52.050;4.810;2022-10-31T00:33:47;11.60;99.90
37528;DHT22;23372;52.050;4.810;2022-10-31T00:36:16;11.60;99.90
37528;DHT22;23372;52.050;4.810;2022-10-31T00:38:42;11.50;99.90
37528;DHT22;23372;52.050;4.810;2022-10-31T00:41:08;11.50;99.90
37528;DHT22;23372;52.050;4.810;2022-10-31T00:43:34;11.40;99.90
37528;DHT22;23372;52.050;4.810;2022-10-31T00:45:59;11.40;99.90
37528;DHT22;23372;52.050;4.810;2022-10-31T00:48:25;11.40;99.90
37528;DHT22;23372;52.050;4.810;2022-10-31T00:50:50;11.40;99.90
37528;DHT22;23372;52.050;4.810;2022-10-31T00:53:16;11.30;99.90
37528;DHT22;23372;52.050;4.810;2022-10-31T00:55:41;11.20;99.90
37528;DHT22;23372;52.050;4.810;2022-10-31T00:58:07;11.20;99.90
37528;DHT22;23372;52.050;4.810;2022-10-31T01:00:32;11.20;99.90
37528;DHT22;23372;52.050;4.810;2022-10-31T01:02:58;11.20;99.90
37528;DHT22;23372;52.050;4.810;2022-10-31T01:05:23;11.20;99.90
37528;DHT22;23372;52.050;4.810;2022-10-31T01:07:49;11.10;99.90
37528;DHT22;23372;52.050;4.810;2022-10-31T01:10:14;11.10;99.90
37528;DHT22;23372;52.050;4.810;2022-10-31T01:12:45;11.10;99.90
37528;DHT22;23372;52.050;4.810;2022-10-31T01:15:14;11.10;99.90
37528;DHT22;23372;52.050;4.810;2022-10-31T01:17:40;11.10;99.90
37528;DHT22;23372;52.050;4.810;2022-10-31T01:20:07;11.10;99.90
37528;DHT22;23372;52.050;4.810;2022-10-31T01:22:33;11.10;99.90
37528;DHT22;23372;52.050;4.810;2022-10-31T01:24:59;11.10;99.90
37528;DHT22;23372;52.050;4.810;2022-10-31T01:27:25;11.00;99.90
37528;DHT22;23372;52.050;4.810;2022-10-31T01:29:51;11.00;99.90
37528;DHT22;23372;52.050;4.810;2022-10-31T01:32:16;11.00;99.90
37528;DHT22;23372;52.050;4.810;2022-10-31T01:34:42;10.90;99.90
37528;DHT22;23372;52.050;4.810;2022-10-31T01:37:07;10.80;99.90
37528;DHT22;23372;52.050;4.810;2022-10-31T01:39:33;10.80;99.90
37528;DHT22;23372;52.050;4.810;2022-10-31T01:41:58;10.70;99.90
37528;DHT22;23372;52.050;4.810;2022-10-31T01:47:15;10.40;99.90
37528;DHT22;23372;52.050;4.810;2022-10-31T01:49:46;10.30;99.90
37528;DHT22;23372;52.050;4.810;2022-10-31T01:52:21;10.20;99.90
37528;DHT22;23372;52.050;4.810;2022-10-31T01:54:58;10.20;99.90
37528;DHT22;23372;52.050;4.810;2022-10-31T01:57:25;10.10;99.90
37528;DHT22;23372;52.050;4.810;2022-10-31T01:59:54;9.90;99.90
37528;DHT22;23372;52.050;4.810;2022-10-31T02:02:22;9.80;99.90
37528;DHT22;23372;52.050;4.810;2022-10-31T02:04:48;9.80;99.90
37528;DHT22;23372;52.050;4.810;2022-10-31T02:07:16;9.80;99.90
37528;DHT22;23372;52.050;4.810;2022-10-31T02:09:43;9.90;99.90
37528;DHT22;23372;52.050;4.810;2022-10-31T02:12:10;9.90;99.90
37528;DHT22;23372;52.050;4.810;2022-10-31T02:14:37;10.00;99.90
37528;DHT22;23372;52.050;4.810;2022-10-31T02:17:03;10.00;99.90
37528;DHT22;23372;52.050;4.810;2022-10-31T02:22:59;9.90;99.90
37528;DHT22;23372;52.050;4.810;2022-10-31T02:26:02;9.80;99.90
37528;DHT22;23372;52.050;4.810;2022-10-31T02:31:22;10.00;99.90
37528;DHT22;23372;52.050;4.810;2022-10-31T02:33:57;10.00;99.90
37528;DHT22;23372;52.050;4.810;2022-10-31T02:36:43;10.00;99.90
37528;DHT22;23372;52.050;4.810;2022-10-31T02:39:22;10.00;99.90
37528;DHT22;23372;52.050;4.810;2022-10-31T02:41:57;9.90;99.90
37528;DHT22;23372;52.050;4.810;2022-10-31T02:47:02;9.70;99.90
37528;DHT22;23372;52.050;4.810;2022-10-31T02:49:43;9.80;99.90
37528;DHT22;23372;52.050;4.810;2022-10-31T02:52:19;9.80;99.90
37528;DHT22;23372;52.050;4.810;2022-10-31T02:54:46;9.60;99.90
37528;DHT22;23372;52.050;4.810;2022-10-31T02:57:13;9.50;99.90
37528;DHT22;23372;52.050;4.810;2022-10-31T02:59:47;9.50;99.90
37528;DHT22;23372;52.050;4.810;2022-10-31T03:02:35;9.50;99.90
37528;DHT22;23372;52.050;4.810;2022-10-31T03:08:10;9.50;99.90
37528;DHT22;23372;52.050;4.810;2022-10-31T03:15:45;9.30;99.90
37528;DHT22;23372;52.050;4.810;2022-10-31T03:18:29;9.30;99.90
37528;DHT22;23372;52.050;4.810;2022-10-31T03:21:04;9.20;99.90
37528;DHT22;23372;52.050;4.810;2022-10-31T03:23:32;9.20;99.90
37528;DHT22;23372;52.050;4.810;2022-10-31T03:26:00;9.20;99.90
37528;DHT22;23372;52.050;4.810;2022-10-31T03:28:34;9.20;99.90
37528;DHT22;23372;52.050;4.810;2022-10-31T03:31:02;9.30;99.90
37528;DHT22;23372;52.050;4.810;2022-10-31T03:33:31;9.20;99.90
37528;DHT22;23372;52.050;4.810;2022-10-31T03:36:00;9.30;99.90
37528;DHT22;23372;52.050;4.810;2022-10-31T03:38:29;9.40;99.90
37528;DHT22;23372;52.050;4.810;2022-10-31T03:40:56;9.40;99.90
37528;DHT22;23372;52.050;4.810;2022-10-31T03:43:28;9.40;99.90
37528;DHT22;23372;52.050;4.810;2022-10-31T03:45:55;9.50;99.90
37528;DHT22;23372;52.050;4.810;2022-10-31T03:48:22;9.50;99.90
37528;DHT22;23372;52.050;4.810;2022-10-31T03:51:03;9.50;99.90
37528;DHT22;23372;52.050;4.810;2022-10-31T03:53:38;9.50;99.90
37528;DHT22;23372;52.050;4.810;2022-10-31T03:56:11;9.60;99.90
37528;DHT22;23372;52.050;4.810;2022-10-31T03:58:45;9.60;99.90
37528;DHT22;23372;52.050;4.810;2022-10-31T04:01:16;9.60;99.90
37528;DHT22;23372;52.050;4.810;2022-10-31T04:03:43;9.70;99.90
37528;DHT22;23372;52.050;4.810;2022-10-31T04:06:12;9.70;99.90
37528;DHT22;23372;52.050;4.810;2022-10-31T04:08:44;9.70;99.90
37528;DHT22;23372;52.050;4.810;2022-10-31T04:11:11;9.80;99.90
37528;DHT22;23372;52.050;4.810;2022-10-31T04:13:39;9.80;99.90
37528;DHT22;23372;52.050;4.810;2022-10-31T04:16:05;9.80;99.90
37528;DHT22;23372;52.050;4.810;2022-10-31T04:18:31;9.80;99.90
37528;DHT22;23372;52.050;4.810;2022-10-31T04:21:06;9.90;99.90
37528;DHT22;23372;52.050;4.810;2022-10-31T04:23:33;9.80;99.90
37528;DHT22;23372;52.050;4.810;2022-10-31T04:25:59;9.80;99.90
37528;DHT22;23372;52.050;4.810;2022-10-31T04:28:24;9.80;99.90
37528;DHT22;23372;52.050;4.810;2022-10-31T04:30:51;9.70;99.90
37528;DHT22;23372;52.050;4.810;2022-10-31T04:33:17;9.80;99.90
37528;DHT22;23372;52.050;4.810;2022-10-31T04:35:42;9.80;99.90
37528;DHT22;23372;52.050;4.810;2022-10-31T04:38:08;9.80;99.90
37528;DHT22;23372;52.050;4.810;2022-10-31T04:40:33;9.80;99.90
37528;DHT22;23372;52.050;4.810;2022-10-31T04:42:58;9.80;99.90
37528;DHT22;23372;52.050;4.810;2022-10-31T04:45:24;9.80;99.90
37528;DHT22;23372;52.050;4.810;2022-10-31T04:47:50;9.80;99.90
37528;DHT22;23372;52.050;4.810;2022-10-31T04:50:15;9.90;99.90
37528;DHT22;23372;52.050;4.810;2022-10-31T04:52:45;9.80;99.90
37528;DHT22;23372;52.050;4.810;2022-10-31T04:55:12;9.90;99.90
37528;DHT22;23372;52.050;4.810;2022-10-31T04:57:45;9.90;99.90
37528;DHT22;23372;52.050;4.810;2022-10-31T05:00:13;9.90;99.90
37528;DHT22;23372;52.050;4.810;2022-10-31T05:02:50;9.90;99.90
37528;DHT22;23372;52.050;4.810;2022-10-31T05:05:17;9.90;99.90
37528;DHT22;23372;52.050;4.810;2022-10-31T05:07:44;9.90;99.90
37528;DHT22;23372;52.050;4.810;2022-10-31T05:10:11;9.80;99.90
37528;DHT22;23372;52.050;4.810;2022-10-31T05:12:38;9.80;99.90
37528;DHT22;23372;52.050;4.810;2022-10-31T05:15:04;9.80;99.90
37528;DHT22;23372;52.050;4.810;2022-10-31T05:17:31;9.80;99.90
37528;DHT22;23372;52.050;4.810;2022-10-31T05:19:56;9.80;99.90
37528;DHT22;23372;52.050;4.810;2022-10-31T05:22:22;9.70;99.90
37528;DHT22;23372;52.050;4.810;2022-10-31T05:24:47;9.70;99.90
37528;DHT22;23372;52.050;4.810;2022-10-31T05:27:13;9.70;99.90
37528;DHT22;23372;52.050;4.810;2022-10-31T05:29:38;9.80;99.90
37528;DHT22;23372;52.050;4.810;2022-10-31T05:32:04;9.80;99.90
37528;DHT22;23372;52.050;4.810;2022-10-31T05:34:29;9.80;99.90
37528;DHT22;23372;52.050;4.810;2022-10-31T05:36:55;9.80;99.90
37528;DHT22;23372;52.050;4.810;2022-10-31T05:39:20;9.80;99.90
37528;DHT22;23372;52.050;4.810;2022-10-31T05:41:46;9.80;99.90
37528;DHT22;23372;52.050;4.810;2022-10-31T05:44:11;9.80;99.90
37528;DHT22;23372;52.050;4.810;2022-10-31T05:46:37;9.80;99.90
37528;DHT22;23372;52.050;4.810;2022-10-31T05:49:02;9.80;99.90
37528;DHT22;23372;52.050;4.810;2022-10-31T05:51:28;9.80;99.90
37528;DHT22;23372;52.050;4.810;2022-10-31T05:53:53;9.80;99.90
37528;DHT22;23372;52.050;4.810;2022-10-31T05:56:19;9.80;99.90
37528;DHT22;23372;52.050;4.810;2022-10-31T05:58:44;9.80;99.90
37528;DHT22;23372;52.050;4.810;2022-10-31T06:01:10;9.80;99.90
37528;DHT22;23372;52.050;4.810;2022-10-31T06:03:35;9.70;99.90
37528;DHT22;23372;52.050;4.810;2022-10-31T06:06:01;9.70;99.90
37528;DHT22;23372;52.050;4.810;2022-10-31T06:08:26;9.70;99.90
37528;DHT22;23372;52.050;4.810;2022-10-31T06:10:52;9.70;99.90
37528;DHT22;23372;52.050;4.810;2022-10-31T06:13:19;9.70;99.90
37528;DHT22;23372;52.050;4.810;2022-10-31T06:15:44;9.70;99.90
37528;DHT22;23372;52.050;4.810;2022-10-31T06:18:09;9.70;99.90
37528;DHT22;23372;52.050;4.810;2022-10-31T06:20:35;9.70;99.90
37528;DHT22;23372;52.050;4.810;2022-10-31T06:23:01;9.80;99.90
37528;DHT22;23372;52.050;4.810;2022-10-31T06:25:26;9.80;99.90
37528;DHT22;23372;52.050;4.810;2022-10-31T06:27:52;9.70;99.90
37528;DHT22;23372;52.050;4.810;2022-10-31T06:30:18;9.70;99.90
37528;DHT22;23372;52.050;4.810;2022-10-31T06:32:43;9.70;99.90
37528;DHT22;23372;52.050;4.810;2022-10-31T06:35:09;9.70;99.90
37528;DHT22;23372;52.050;4.810;2022-10-31T06:37:35;9.60;99.90
37528;DHT22;23372;52.050;4.810;2022-10-31T06:40:01;9.60;99.90
37528;DHT22;23372;52.050;4.810;2022-10-31T06:42:26;9.50;99.90
37528;DHT22;23372;52.050;4.810;2022-10-31T06:44:52;9.60;99.90
37528;DHT22;23372;52.050;4.810;2022-10-31T06:47:17;9.50;99.90
37528;DHT22;23372;52.050;4.810;2022-10-31T06:49:42;9.50;99.90
37528;DHT22;23372;52.050;4.810;2022-10-31T06:52:08;9.50;99.90
37528;DHT22;23372;52.050;4.810;2022-10-31T06:54:33;9.50;99.90
37528;DHT22;23372;52.050;4.810;2022-10-31T06:56:59;9.50;99.90
37528;DHT22;23372;52.050;4.810;2022-10-31T06:59:24;9.50;99.90
37528;DHT22;23372;52.050;4.810;2022-10-31T07:01:50;9.50;99.90
37528;DHT22;23372;52.050;4.810;2022-10-31T07:04:15;9.50;99.90
37528;DHT22;23372;52.050;4.810;2022-10-31T07:06:41;9.50;99.90
37528;DHT22;23372;52.050;4.810;2022-10-31T07:09:06;9.50;99.90
37528;DHT22;23372;52.050;4.810;2022-10-31T07:11:32;9.50;99.90
37528;DHT22;23372;52.050;4.810;2022-10-31T07:13:58;9.40;99.90
37528;DHT22;23372;52.050;4.810;2022-10-31T07:16:23;9.40;99.90
37528;DHT22;23372;52.050;4.810;2022-10-31T07:18:49;9.50;99.90
37528;DHT22;23372;52.050;4.810;2022-10-31T07:21:15;9.50;99.90
37528;DHT22;23372;52.050;4.810;2022-10-31T07:23:40;9.50;99.90
37528;DHT22;23372;52.050;4.810;2022-10-31T07:26:07;9.60;99.90
37528;DHT22;23372;52.050;4.810;2022-10-31T07:28:32;9.70;99.90
37528;DHT22;23372;52.050;4.810;2022-10-31T07:30:58;9.70;99.90
37528;DHT22;23372;52.050;4.810;2022-10-31T07:33:24;9.80;99.90
37528;DHT22;23372;52.050;4.810;2022-10-31T07:35:53;9.90;99.90
37528;DHT22;23372;52.050;4.810;2022-10-31T07:38:18;10.00;99.90
37528;DHT22;23372;52.050;4.810;2022-10-31T07:40:48;10.10;99.90
37528;DHT22;23372;52.050;4.810;2022-10-31T07:43:14;10.20;99.90
37528;DHT22;23372;52.050;4.810;2022-10-31T07:45:40;10.40;99.90
37528;DHT22;23372;52.050;4.810;2022-10-31T07:48:05;10.40;99.90
37528;DHT22;23372;52.050;4.810;2022-10-31T07:50:32;10.50;99.90
37528;DHT22;23372;52.050;4.810;2022-10-31T07:53:05;10.50;99.90
37528;DHT22;23372;52.050;4.810;2022-10-31T07:55:32;10.60;99.90
37528;DHT22;23372;52.050;4.810;2022-10-31T07:57:59;10.60;99.90
37528;DHT22;23372;52.050;4.810;2022-10-31T08:00:25;10.60;99.90
37528;DHT22;23372;52.050;4.810;2022-10-31T08:03:02;10.70;99.90
37528;DHT22;23372;52.050;4.810;2022-10-31T08:05:29;10.70;99.90
37528;DHT22;23372;52.050;4.810;2022-10-31T08:07:55;10.80;99.90
37528;DHT22;23372;52.050;4.810;2022-10-31T08:10:21;10.70;99.90
37528;DHT22;23372;52.050;4.810;2022-10-31T08:12:47;10.80;99.90
37528;DHT22;23372;52.050;4.810;2022-10-31T08:15:13;10.70;99.90
37528;DHT22;23372;52.050;4.810;2022-10-31T08:17:38;10.70;99.90
37528;DHT22;23372;52.050;4.810;2022-10-31T08:20:05;10.60;99.90
37528;DHT22;23372;52.050;4.810;2022-10-31T08:22:30;10.60;99.90
37528;DHT22;23372;52.050;4.810;2022-10-31T08:24:56;10.60;99.90
37528;DHT22;23372;52.050;4.810;2022-10-31T08:27:22;10.70;99.90
37528;DHT22;23372;52.050;4.810;2022-10-31T08:29:47;10.70;99.90
37528;DHT22;23372;52.050;4.810;2022-10-31T08:32:13;10.90;99.90
37528;DHT22;23372;52.050;4.810;2022-10-31T08:34:38;11.00;99.90
37528;DHT22;23372;52.050;4.810;2022-10-31T08:37:04;11.10;99.90
37528;DHT22;23372;52.050;4.810;2022-10-31T08:39:29;11.20;99.90
37528;DHT22;23372;52.050;4.810;2022-10-31T08:41:55;11.20;99.90
37528;DHT22;23372;52.050;4.810;2022-10-31T08:44:20;11.20;99.90
37528;DHT22;23372;52.050;4.810;2022-10-31T08:46:46;11.30;99.90
37528;DHT22;23372;52.050;4.810;2022-10-31T08:49:11;11.40;99.90
37528;DHT22;23372;52.050;4.810;2022-10-31T08:51:37;11.60;99.90
37528;DHT22;23372;52.050;4.810;2022-10-31T08:54:03;11.70;99.90
37528;DHT22;23372;52.050;4.810;2022-10-31T08:56:28;11.90;99.90
37528;DHT22;23372;52.050;4.810;2022-10-31T08:58:54;12.10;99.90
37528;DHT22;23372;52.050;4.810;2022-10-31T09:01:19;12.30;99.90
37528;DHT22;23372;52.050;4.810;2022-10-31T09:03:45;12.60;99.90
37528;DHT22;23372;52.050;4.810;2022-10-31T09:06:10;13.00;99.90
37528;DHT22;23372;52.050;4.810;2022-10-31T09:08:36;13.10;99.90
37528;DHT22;23372;52.050;4.810;2022-10-31T09:11:02;13.20;99.90
37528;DHT22;23372;52.050;4.810;2022-10-31T09:13:28;13.20;99.90
37528;DHT22;23372;52.050;4.810;2022-10-31T09:15:53;13.00;99.90
37528;DHT22;23372;52.050;4.810;2022-10-31T09:18:20;13.00;99.90
37528;DHT22;23372;52.050;4.810;2022-10-31T09:20:48;13.00;99.90
37528;DHT22;23372;52.050;4.810;2022-10-31T09:23:19;13.10;99.90
37528;DHT22;23372;52.050;4.810;2022-10-31T09:25:46;13.30;99.90
37528;DHT22;23372;52.050;4.810;2022-10-31T09:28:14;13.60;99.90
37528;DHT22;23372;52.050;4.810;2022-10-31T09:30:40;13.60;99.90
37528;DHT22;23372;52.050;4.810;2022-10-31T09:33:12;13.50;99.90
37528;DHT22;23372;52.050;4.810;2022-10-31T09:35:38;13.50;99.90
37528;DHT22;23372;52.050;4.810;2022-10-31T09:38:07;13.50;99.90
37528;DHT22;23372;52.050;4.810;2022-10-31T09:40:51;13.50;99.90
37528;DHT22;23372;52.050;4.810;2022-10-31T09:46:20;13.50;99.90
37528;DHT22;23372;52.050;4.810;2022-10-31T09:51:41;13.70;99.90
37528;DHT22;23372;52.050;4.810;2022-10-31T09:54:27;13.90;99.90
37528;DHT22;23372;52.050;4.810;2022-10-31T09:56:56;13.90;99.90
37528;DHT22;23372;52.050;4.810;2022-10-31T09:59:31;14.00;99.90
37528;DHT22;23372;52.050;4.810;2022-10-31T10:02:02;14.00;99.90
37528;DHT22;23372;52.050;4.810;2022-10-31T10:09:57;14.20;99.90
37528;DHT22;23372;52.050;4.810;2022-10-31T10:12:44;14.30;99.90
37528;DHT22;23372;52.050;4.810;2022-10-31T10:15:45;14.30;99.90
37528;DHT22;23372;52.050;4.810;2022-10-31T10:21:39;14.40;99.90
37528;DHT22;23372;52.050;4.810;2022-10-31T10:27:46;14.60;99.90
37528;DHT22;23372;52.050;4.810;2022-10-31T10:30:01;14.70;99.90
37528;DHT22;23372;52.050;4.810;2022-10-31T10:32:29;14.80;99.90
37528;DHT22;23372;52.050;4.810;2022-10-31T10:35:33;14.80;99.90
37528;DHT22;23372;52.050;4.810;2022-10-31T10:37:54;14.90;99.90
37528;DHT22;23372;52.050;4.810;2022-10-31T10:40:25;15.00;99.90
37528;DHT22;23372;52.050;4.810;2022-10-31T10:43:21;14.90;99.90
37528;DHT22;23372;52.050;4.810;2022-10-31T10:46:13;14.90;99.90
37528;DHT22;23372;52.050;4.810;2022-10-31T10:49:16;15.00;99.90
37528;DHT22;23372;52.050;4.810;2022-10-31T10:54:45;15.70;99.90
37528;DHT22;23372;52.050;4.810;2022-10-31T10:57:37;15.60;99.90
37528;DHT22;23372;52.050;4.810;2022-10-31T11:00:20;15.40;99.90
37528;DHT22;23372;52.050;4.810;2022-10-31T11:02:46;15.10;99.90
37528;DHT22;23372;52.050;4.810;2022-10-31T11:05:40;15.00;99.90
37528;DHT22;23372;52.050;4.810;2022-10-31T11:08:07;15.00;99.90
37528;DHT22;23372;52.050;4.810;2022-10-31T11:10:34;15.00;99.90
37528;DHT22;23372;52.050;4.810;2022-10-31T11:13:05;15.10;99.90
37528;DHT22;23372;52.050;4.810;2022-10-31T11:15:35;15.10;99.90
37528;DHT22;23372;52.050;4.810;2022-10-31T11:18:01;15.20;99.90
37528;DHT22;23372;52.050;4.810;2022-10-31T11:20:33;15.20;99.90
37528;DHT22;23372;52.050;4.810;2022-10-31T11:23:03;15.30;99.90
37528;DHT22;23372;52.050;4.810;2022-10-31T11:25:29;15.30;99.90
37528;DHT22;23372;52.050;4.810;2022-10-31T11:28:10;15.40;99.90
37528;DHT22;23372;52.050;4.810;2022-10-31T11:30:46;15.30;99.90
37528;DHT22;23372;52.050;4.810;2022-10-31T11:33:32;15.40;99.90
37528;DHT22;23372;52.050;4.810;2022-10-31T11:35:59;15.40;99.90
37528;DHT22;23372;52.050;4.810;2022-10-31T11:38:33;15.40;99.90
37528;DHT22;23372;52.050;4.810;2022-10-31T11:41:16;15.40;99.90
37528;DHT22;23372;52.050;4.810;2022-10-31T11:43:57;15.40;99.90
37528;DHT22;23372;52.050;4.810;2022-10-31T11:49:00;15.40;99.90
37528;DHT22;23372;52.050;4.810;2022-10-31T11:51:32;15.40;99.90
37528;DHT22;23372;52.050;4.810;2022-10-31T11:53:59;15.40;99.90
37528;DHT22;23372;52.050;4.810;2022-10-31T11:56:36;15.40;99.90
37528;DHT22;23372;52.050;4.810;2022-10-31T11:59:05;15.40;99.90
37528;DHT22;23372;52.050;4.810;2022-10-31T12:01:32;15.50;99.90
37528;DHT22;23372;52.050;4.810;2022-10-31T12:04:08;15.50;99.90
37528;DHT22;23372;52.050;4.810;2022-10-31T12:06:39;15.50;99.90
37528;DHT22;23372;52.050;4.810;2022-10-31T12:09:25;15.50;99.90
37528;DHT22;23372;52.050;4.810;2022-10-31T12:14:41;15.60;99.90
37528;DHT22;23372;52.050;4.810;2022-10-31T12:17:16;15.60;99.90
37528;DHT22;23372;52.050;4.810;2022-10-31T12:22:41;15.70;99.90
37528;DHT22;23372;52.050;4.810;2022-10-31T12:25:17;15.80;99.90
37528;DHT22;23372;52.050;4.810;2022-10-31T12:33:33;15.90;99.90
37528;DHT22;23372;52.050;4.810;2022-10-31T12:36:34;15.90;99.90
37528;DHT22;23372;52.050;4.810;2022-10-31T12:41:53;16.00;99.90
37528;DHT22;23372;52.050;4.810;2022-10-31T12:58:23;16.00;99.90
37528;DHT22;23372;52.050;4.810;2022-10-31T13:00:58;16.00;99.90
37528;DHT22;23372;52.050;4.810;2022-10-31T13:03:53;15.90;99.90
37528;DHT22;23372;52.050;4.810;2022-10-31T13:06:23;15.80;99.90
37528;DHT22;23372;52.050;4.810;2022-10-31T13:08:59;15.70;99.90
37528;DHT22;23372;52.050;4.810;2022-10-31T13:11:39;15.70;99.90
37528;DHT22;23372;52.050;4.810;2022-10-31T13:14:18;15.70;99.90
37528;DHT22;23372;52.050;4.810;2022-10-31T13:16:47;15.70;99.90
37528;DHT22;23372;52.050;4.810;2022-10-31T13:19:31;15.80;99.90
37528;DHT22;23372;52.050;4.810;2022-10-31T13:22:24;15.80;99.90
37528;DHT22;23372;52.050;4.810;2022-10-31T13:25:03;15.80;99.90
37528;DHT22;23372;52.050;4.810;2022-10-31T13:27:44;15.80;99.90
37528;DHT22;23372;52.050;4.810;2022-10-31T13:32:44;15.70;99.90
37528;DHT22;23372;52.050;4.810;2022-10-31T13:38:25;15.60;99.90
37528;DHT22;23372;52.050;4.810;2022-10-31T13:46:41;15.50;99.90
37528;DHT22;23372;52.050;4.810;2022-10-31T13:57:29;15.60;99.90
37528;DHT22;23372;52.050;4.810;2022-10-31T13:59:58;15.70;99.90
37528;DHT22;23372;52.050;4.810;2022-10-31T14:02:32;15.70;99.90
37528;DHT22;23372;52.050;4.810;2022-10-31T14:05:05;15.70;99.90
37528;DHT22;23372;52.050;4.810;2022-10-31T14:07:32;15.70;99.90
37528;DHT22;23372;52.050;4.810;2022-10-31T14:10:02;15.70;99.90
37528;DHT22;23372;52.050;4.810;2022-10-31T14:12:41;15.60;99.90
37528;DHT22;23372;52.050;4.810;2022-10-31T14:15:21;15.60;99.90
37528;DHT22;23372;52.050;4.810;2022-10-31T14:17:58;15.60;99.90
37528;DHT22;23372;52.050;4.810;2022-10-31T14:20:42;15.60;99.90
37528;DHT22;23372;52.050;4.810;2022-10-31T14:23:33;15.70;99.90
37528;DHT22;23372;52.050;4.810;2022-10-31T14:28:43;15.70;99.90
37528;DHT22;23372;52.050;4.810;2022-10-31T14:34:58;15.60;99.90
37528;DHT22;23372;52.050;4.810;2022-10-31T14:45:31;15.50;99.90
37528;DHT22;23372;52.050;4.810;2022-10-31T14:48:29;15.50;99.90
37528;DHT22;23372;52.050;4.810;2022-10-31T14:51:01;15.50;99.90
37528;DHT22;23372;52.050;4.810;2022-10-31T14:56:27;15.40;99.90
37528;DHT22;23372;52.050;4.810;2022-10-31T14:58:56;15.40;99.90
37528;DHT22;23372;52.050;4.810;2022-10-31T15:01:30;15.40;99.90
37528;DHT22;23372;52.050;4.810;2022-10-31T15:04:08;15.40;99.90
37528;DHT22;23372;52.050;4.810;2022-10-31T15:06:46;15.30;99.90
37528;DHT22;23372;52.050;4.810;2022-10-31T15:09:27;15.30;99.90
37528;DHT22;23372;52.050;4.810;2022-10-31T15:11:53;15.20;99.90
37528;DHT22;23372;52.050;4.810;2022-10-31T15:14:27;15.20;99.90
37528;DHT22;23372;52.050;4.810;2022-10-31T15:16:55;15.20;99.90
37528;DHT22;23372;52.050;4.810;2022-10-31T15:19:27;15.20;99.90
37528;DHT22;23372;52.050;4.810;2022-10-31T15:21:54;15.20;99.90
37528;DHT22;23372;52.050;4.810;2022-10-31T15:24:24;15.20;99.90
37528;DHT22;23372;52.050;4.810;2022-10-31T15:26:54;15.10;99.90
37528;DHT22;23372;52.050;4.810;2022-10-31T15:29:22;15.10;99.90
37528;DHT22;23372;52.050;4.810;2022-10-31T15:32:00;15.10;99.90
37528;DHT22;23372;52.050;4.810;2022-10-31T15:34:42;15.10;99.90
37528;DHT22;23372;52.050;4.810;2022-10-31T15:37:12;15.10;99.90
37528;DHT22;23372;52.050;4.810;2022-10-31T15:39:39;15.10;99.90
37528;DHT22;23372;52.050;4.810;2022-10-31T15:42:13;15.00;99.90
37528;DHT22;23372;52.050;4.810;2022-10-31T15:44:41;15.00;99.90
37528;DHT22;23372;52.050;4.810;2022-10-31T15:47:15;15.00;99.90
37528;DHT22;23372;52.050;4.810;2022-10-31T15:49:50;15.00;99.90
37528;DHT22;23372;52.050;4.810;2022-10-31T15:52:37;14.90;99.90
37528;DHT22;23372;52.050;4.810;2022-10-31T15:55:15;14.90;99.90
37528;DHT22;23372;52.050;4.810;2022-10-31T15:57:53;14.80;99.90
37528;DHT22;23372;52.050;4.810;2022-10-31T16:00:34;14.80;99.90
37528;DHT22;23372;52.050;4.810;2022-10-31T16:05:51;14.80;99.90
37528;DHT22;23372;52.050;4.810;2022-10-31T16:10:53;14.80;99.90
37528;DHT22;23372;52.050;4.810;2022-10-31T16:13:31;14.70;99.90
37528;DHT22;23372;52.050;4.810;2022-10-31T16:16:00;14.70;99.90
37528;DHT22;23372;52.050;4.810;2022-10-31T16:18:27;14.70;99.90
37528;DHT22;23372;52.050;4.810;2022-10-31T16:20:55;14.70;99.90
37528;DHT22;23372;52.050;4.810;2022-10-31T16:23:23;14.60;99.90
37528;DHT22;23372;52.050;4.810;2022-10-31T16:25:50;14.60;99.90
37528;DHT22;23372;52.050;4.810;2022-10-31T16:28:21;14.60;99.90
37528;DHT22;23372;52.050;4.810;2022-10-31T16:30:49;14.50;99.90
37528;DHT22;23372;52.050;4.810;2022-10-31T16:33:25;14.50;99.90
37528;DHT22;23372;52.050;4.810;2022-10-31T16:35:50;14.50;99.90
37528;DHT22;23372;52.050;4.810;2022-10-31T16:38:16;14.40;99.90
37528;DHT22;23372;52.050;4.810;2022-10-31T16:40:42;14.40;99.90
37528;DHT22;23372;52.050;4.810;2022-10-31T16:43:12;14.40;99.90
37528;DHT22;23372;52.050;4.810;2022-10-31T16:45:43;14.40;99.90
37528;DHT22;23372;52.050;4.810;2022-10-31T16:48:20;14.40;99.90
37528;DHT22;23372;52.050;4.810;2022-10-31T16:50:47;14.50;99.90
37528;DHT22;23372;52.050;4.810;2022-10-31T16:53:13;14.40;99.90
37528;DHT22;23372;52.050;4.810;2022-10-31T16:58:13;14.40;99.90
37528;DHT22;23372;52.050;4.810;2022-10-31T17:00:40;14.40;99.90
37528;DHT22;23372;52.050;4.810;2022-10-31T17:03:07;14.40;99.90
37528;DHT22;23372;52.050;4.810;2022-10-31T17:05:32;14.40;99.90
37528;DHT22;23372;52.050;4.810;2022-10-31T17:07:59;14.30;99.90
37528;DHT22;23372;52.050;4.810;2022-10-31T17:10:25;14.30;99.90
37528;DHT22;23372;52.050;4.810;2022-10-31T17:12:51;14.20;99.90
37528;DHT22;23372;52.050;4.810;2022-10-31T17:15:22;14.10;99.90
37528;DHT22;23372;52.050;4.810;2022-10-31T17:17:48;14.10;99.90
37528;DHT22;23372;52.050;4.810;2022-10-31T17:20:21;14.00;99.90
37528;DHT22;23372;52.050;4.810;2022-10-31T17:22:47;13.90;99.90
37528;DHT22;23372;52.050;4.810;2022-10-31T17:25:15;13.90;99.90
37528;DHT22;23372;52.050;4.810;2022-10-31T17:27:41;13.80;99.90
37528;DHT22;23372;52.050;4.810;2022-10-31T17:30:07;13.80;99.90
37528;DHT22;23372;52.050;4.810;2022-10-31T17:32:33;13.70;99.90
37528;DHT22;23372;52.050;4.810;2022-10-31T17:34:59;13.60;99.90
37528;DHT22;23372;52.050;4.810;2022-10-31T17:37:24;13.60;99.90
37528;DHT22;23372;52.050;4.810;2022-10-31T17:39:49;13.60;99.90
37528;DHT22;23372;52.050;4.810;2022-10-31T17:42:15;13.50;99.90
37528;DHT22;23372;52.050;4.810;2022-10-31T17:44:40;13.60;99.90
37528;DHT22;23372;52.050;4.810;2022-10-31T17:47:06;13.60;99.90
37528;DHT22;23372;52.050;4.810;2022-10-31T17:49:31;13.60;99.90